createdAt,value
2018-01-23T00:00:49.258Z,605.70
2018-01-23T00:03:18.393Z,594.17
2018-01-23T00:05:47.544Z,604.23
2018-01-23T00:08:16.704Z,605.53
2018-01-23T00:10:45.890Z,596.67
2018-01-23T00:13:15.041Z,628.33
2018-01-23T00:15:44.215Z,625.80
2018-01-23T00:18:13.401Z,631.00
2018-01-23T00:20:42.595Z,626.77
2018-01-23T00:23:11.767Z,628.73
2018-01-23T00:25:40.910Z,633.80
2018-01-23T00:28:10.088Z,630.27
2018-01-23T00:30:39.233Z,630.80
2018-01-23T00:33:08.489Z,626.17
2018-01-23T00:35:37.636Z,626.83
2018-01-23T00:38:06.784Z,627.87
2018-01-23T00:40:35.961Z,624.10
2018-01-23T00:43:05.098Z,613.23
2018-01-23T00:45:34.291Z,603.83
2018-01-23T00:48:03.466Z,630.70
2018-01-23T00:50:32.641Z,611.53
2018-01-23T00:53:01.793Z,614.93
2018-01-23T00:55:30.990Z,611.40
2018-01-23T00:58:00.177Z,613.07
2018-01-23T01:00:29.381Z,612.67
2018-01-23T01:02:58.524Z,610.20
2018-01-23T01:05:27.694Z,618.27
2018-01-23T01:07:56.873Z,661.13
2018-01-23T01:10:26.013Z,643.23
2018-01-23T01:12:55.199Z,628.53
2018-01-23T01:15:24.390Z,595.40
2018-01-23T01:17:53.583Z,563.50
2018-01-23T01:20:22.760Z,542.93
2018-01-23T01:22:51.892Z,529.10
2018-01-23T01:25:21.098Z,527.87
2018-01-23T01:27:50.229Z,547.80
2018-01-23T01:30:19.379Z,545.43
2018-01-23T01:32:48.524Z,550.10
2018-01-23T01:35:17.717Z,556.63
2018-01-23T01:37:46.859Z,586.80
2018-01-23T01:40:16.013Z,603.33
2018-01-23T01:42:45.185Z,615.87
2018-01-23T01:45:14.338Z,602.13
2018-01-23T01:47:43.532Z,598.70
2018-01-23T01:50:12.681Z,620.77
2018-01-23T01:52:41.821Z,610.33
2018-01-23T01:55:10.971Z,594.87
2018-01-23T01:57:40.152Z,604.53
2018-01-23T02:00:09.294Z,581.00
2018-01-23T02:02:38.476Z,591.53
2018-01-23T02:05:07.656Z,567.33
2018-01-23T02:07:36.832Z,582.37
2018-01-23T02:10:05.980Z,583.80
2018-01-23T02:12:35.155Z,591.90
2018-01-23T02:15:04.303Z,616.80
2018-01-23T02:17:33.450Z,606.50
2018-01-23T02:20:02.596Z,659.07
2018-01-23T02:22:31.757Z,639.47
2018-01-23T02:25:00.941Z,623.63
2018-01-23T02:27:30.094Z,591.20
2018-01-23T02:29:59.286Z,571.00
2018-01-23T02:32:28.417Z,578.87
2018-01-23T02:34:57.568Z,585.13
2018-01-23T02:37:26.721Z,567.97
2018-01-23T02:39:55.889Z,585.80
2018-01-23T02:42:25.026Z,594.23
2018-01-23T02:44:54.195Z,599.40
2018-01-23T02:47:23.353Z,613.83
2018-01-23T02:49:52.535Z,634.93
2018-01-23T02:52:21.709Z,645.23
2018-01-23T02:54:50.848Z,648.53
2018-01-23T02:57:20.034Z,663.70
2018-01-23T02:59:49.169Z,650.47
2018-01-23T03:02:18.359Z,639.17
2018-01-23T03:04:47.525Z,606.30
2018-01-23T03:07:16.666Z,590.03
2018-01-23T03:09:46.071Z,592.80
2018-01-23T03:12:15.225Z,606.87
2018-01-23T03:14:44.384Z,628.53
2018-01-23T03:17:13.540Z,614.50
2018-01-23T03:19:42.710Z,606.53
2018-01-23T03:22:11.889Z,596.97
2018-01-23T03:24:41.033Z,582.77
2018-01-23T03:27:10.229Z,600.40
2018-01-23T03:29:39.446Z,605.93
2018-01-23T03:32:08.591Z,615.73
2018-01-23T03:34:37.758Z,620.53
2018-01-23T03:37:06.898Z,614.50
2018-01-23T03:39:36.094Z,629.97
2018-01-23T03:42:05.239Z,664.50
2018-01-23T03:44:34.389Z,699.63
2018-01-23T03:47:03.571Z,694.93
2018-01-23T03:49:32.770Z,715.50
2018-01-23T03:52:01.916Z,690.70
2018-01-23T03:54:31.070Z,688.77
2018-01-23T03:57:00.252Z,702.73
2018-01-23T03:59:29.377Z,728.87
2018-01-23T04:01:58.538Z,715.53
2018-01-23T04:04:27.689Z,709.07
2018-01-23T04:06:56.856Z,709.87
2018-01-23T04:09:25.994Z,714.27
2018-01-23T04:11:55.184Z,732.20
2018-01-23T04:14:24.324Z,722.33
2018-01-23T04:16:53.483Z,735.37
2018-01-23T04:19:22.624Z,740.03
2018-01-23T04:21:51.801Z,749.77
2018-01-23T04:24:20.979Z,753.73
2018-01-23T04:26:50.144Z,730.10
2018-01-23T04:29:19.282Z,717.47
2018-01-23T04:31:48.468Z,730.60
2018-01-23T04:34:17.624Z,721.47
2018-01-23T04:36:46.797Z,714.33
2018-01-23T04:39:15.972Z,737.13
2018-01-23T04:41:45.156Z,721.83
2018-01-23T04:44:14.331Z,703.37
2018-01-23T04:46:43.480Z,736.00
2018-01-23T04:49:12.654Z,730.83
2018-01-23T04:51:41.789Z,726.93
2018-01-23T04:54:10.976Z,723.53
2018-01-23T04:56:40.118Z,735.80
2018-01-23T04:59:09.278Z,736.23
2018-01-23T05:01:38.436Z,742.50
2018-01-23T05:04:07.616Z,750.87
2018-01-23T05:06:36.759Z,748.50
2018-01-23T05:09:05.914Z,766.13
2018-01-23T05:11:35.061Z,759.10
2018-01-23T05:14:04.245Z,738.03
2018-01-23T05:16:33.386Z,750.03
2018-01-23T05:19:02.557Z,767.27
2018-01-23T05:21:31.709Z,747.83
2018-01-23T05:24:00.885Z,764.83
2018-01-23T05:26:30.026Z,755.10
2018-01-23T05:28:59.208Z,754.47
2018-01-23T05:31:28.370Z,740.80
2018-01-23T05:33:57.537Z,733.87
2018-01-23T05:36:26.696Z,761.97
2018-01-23T05:38:55.885Z,754.67
2018-01-23T05:41:25.022Z,745.63
2018-01-23T05:43:54.177Z,753.67
2018-01-23T05:46:23.354Z,756.27
2018-01-23T05:48:52.497Z,772.27
2018-01-23T05:51:21.682Z,756.23
2018-01-23T05:53:50.817Z,775.60
2018-01-23T05:56:20.006Z,761.20
2018-01-23T05:58:49.153Z,743.43
2018-01-23T06:01:18.326Z,743.37
2018-01-23T06:03:47.547Z,734.17
2018-01-23T06:06:16.693Z,741.70
2018-01-23T06:08:45.876Z,754.63
2018-01-23T06:11:15.026Z,771.33
2018-01-23T06:13:44.162Z,786.40
2018-01-23T06:16:13.981Z,781.13
2018-01-23T06:18:43.193Z,787.33
2018-01-23T06:21:12.369Z,796.57
2018-01-23T06:23:41.526Z,785.90
2018-01-23T06:26:10.677Z,797.93
2018-01-23T06:28:39.857Z,802.67
2018-01-23T06:31:09.019Z,809.00
2018-01-23T06:33:38.189Z,816.57
2018-01-23T06:36:07.329Z,824.13
2018-01-23T06:38:36.485Z,813.30
2018-01-23T06:41:05.623Z,817.23
2018-01-23T06:43:34.815Z,815.23
2018-01-23T06:46:03.965Z,827.43
2018-01-23T06:48:33.152Z,825.53
2018-01-23T06:51:02.294Z,840.90
2018-01-23T06:53:31.504Z,842.90
2018-01-23T06:56:03.683Z,846.00
2018-01-23T06:58:32.847Z,841.00
2018-01-23T07:01:02.008Z,860.33
2018-01-23T07:03:31.218Z,861.73
2018-01-23T07:06:00.398Z,849.13
2018-01-23T07:08:29.550Z,857.57
2018-01-23T07:10:58.731Z,851.00
2018-01-23T07:13:27.877Z,828.97
2018-01-23T07:15:57.088Z,813.27
2018-01-23T07:18:26.266Z,811.93
2018-01-23T07:20:55.434Z,792.13
2018-01-23T07:23:24.608Z,787.07
2018-01-23T07:25:53.789Z,762.17
2018-01-23T07:28:22.946Z,690.87
2018-01-23T07:30:52.089Z,670.20
2018-01-23T07:33:21.241Z,638.63
2018-01-23T07:35:50.415Z,599.50
2018-01-23T07:38:19.566Z,535.07
2018-01-23T07:40:48.767Z,485.83
2018-01-23T07:43:17.906Z,455.23
2018-01-23T07:45:47.057Z,433.37
2018-01-23T07:48:16.197Z,417.73
2018-01-23T07:50:45.403Z,430.97
2018-01-23T07:53:14.546Z,417.03
2018-01-23T07:55:43.696Z,439.70
2018-01-23T07:58:12.873Z,448.03
2018-01-23T08:00:42.066Z,433.40
2018-01-23T08:03:11.237Z,406.47
2018-01-23T08:05:40.410Z,408.93
2018-01-23T08:08:09.593Z,417.43
2018-01-23T08:10:38.809Z,440.20
2018-01-23T08:13:08.010Z,485.43
2018-01-23T08:15:37.166Z,536.13
2018-01-23T08:18:06.302Z,512.17
2018-01-23T08:20:35.541Z,543.70
2018-01-23T08:23:04.712Z,558.93
2018-01-23T08:25:33.898Z,584.27
2018-01-23T08:28:03.035Z,604.10
2018-01-23T08:30:32.229Z,637.43
2018-01-23T08:33:01.376Z,636.27
2018-01-23T08:35:30.531Z,645.80
2018-01-23T08:37:59.713Z,670.40
2018-01-23T08:40:28.861Z,704.07
2018-01-23T08:42:58.045Z,739.00
2018-01-23T08:45:27.209Z,772.47
2018-01-23T08:47:56.377Z,793.67
2018-01-23T08:50:25.520Z,804.40
2018-01-23T08:52:54.702Z,807.97
2018-01-23T08:55:23.898Z,824.27
2018-01-23T08:57:53.055Z,826.07
2018-01-23T09:00:22.232Z,805.50
2018-01-23T09:02:51.381Z,785.40
2018-01-23T09:05:20.550Z,788.13
2018-01-23T09:07:49.721Z,814.37
2018-01-23T09:10:18.908Z,828.97
2018-01-23T09:12:48.057Z,842.57
2018-01-23T09:15:17.249Z,866.77
2018-01-23T09:17:46.404Z,872.33
2018-01-23T09:20:15.570Z,894.43
2018-01-23T09:22:44.791Z,910.87
2018-01-23T09:25:13.964Z,890.57
2018-01-23T09:27:43.109Z,920.53
2018-01-23T09:30:12.297Z,934.03
2018-01-23T09:32:41.441Z,945.23
2018-01-23T09:35:10.629Z,1027.10
2018-01-23T09:37:39.779Z,1022.47
2018-01-23T09:40:08.976Z,1034.43
2018-01-23T09:42:38.144Z,1042.07
2018-01-23T09:45:07.332Z,1046.87
2018-01-23T09:47:36.476Z,1075.63
2018-01-23T09:50:05.658Z,1063.33
2018-01-23T09:52:34.804Z,1072.90
2018-01-23T09:55:03.989Z,1084.00
2018-01-23T09:57:33.202Z,1085.47
2018-01-23T10:00:02.360Z,1092.83
2018-01-23T10:02:31.507Z,1099.53
2018-01-23T10:05:00.687Z,1113.20
2018-01-23T10:07:29.842Z,1105.13
2018-01-23T10:09:59.064Z,1104.43
2018-01-23T10:12:28.217Z,1078.93
2018-01-23T10:14:57.352Z,1086.00
2018-01-23T10:17:26.539Z,1106.77
2018-01-23T10:19:55.690Z,1093.10
2018-01-23T10:22:24.870Z,1090.00
2018-01-23T10:24:54.026Z,1099.73
2018-01-23T10:27:23.206Z,1100.57
2018-01-23T10:29:52.384Z,1104.17
2018-01-23T10:32:21.549Z,1101.27
2018-01-23T10:34:50.721Z,1101.43
2018-01-23T10:37:19.925Z,1104.77
2018-01-23T10:39:49.072Z,1089.57
2018-01-23T10:42:18.238Z,1107.60
2018-01-23T10:44:47.485Z,1103.17
2018-01-23T10:47:16.601Z,1085.23
2018-01-23T10:49:45.793Z,1082.30
2018-01-23T10:52:14.937Z,1098.23
2018-01-23T10:54:44.112Z,1106.43
2018-01-23T10:57:13.262Z,1112.13
2018-01-23T10:59:42.405Z,1102.90
2018-01-23T11:02:11.582Z,1109.17
2018-01-23T11:04:40.785Z,1109.67
2018-01-23T11:07:09.935Z,1114.87
2018-01-23T11:09:39.090Z,1110.40
2018-01-23T11:12:08.260Z,1102.83
2018-01-23T11:14:37.461Z,1080.00
2018-01-23T11:17:06.612Z,1062.20
2018-01-23T11:19:35.793Z,1008.57
2018-01-23T11:22:04.973Z,1051.97
2018-01-23T11:24:34.178Z,1050.50
2018-01-23T11:27:03.350Z,1056.13
2018-01-23T11:29:32.506Z,1055.83
2018-01-23T11:32:01.688Z,1047.93
2018-01-23T11:34:30.838Z,1044.97
2018-01-23T11:37:00.028Z,1049.73
2018-01-23T11:39:29.228Z,1049.97
2018-01-23T11:41:58.378Z,1055.70
2018-01-23T11:44:27.555Z,1050.93
2018-01-23T11:46:56.784Z,1045.37
2018-01-23T11:49:25.958Z,1038.10
2018-01-23T11:51:55.112Z,1041.07
2018-01-23T11:54:24.299Z,1033.20
2018-01-23T11:56:53.452Z,1028.30
2018-01-23T11:59:22.624Z,1009.53
2018-01-23T12:01:51.804Z,994.17
2018-01-23T12:04:20.950Z,970.67
2018-01-23T12:06:50.128Z,963.27
2018-01-23T12:09:19.321Z,923.63
2018-01-23T12:11:48.451Z,925.43
2018-01-23T12:14:17.609Z,937.80
2018-01-23T12:16:46.756Z,911.60
2018-01-23T12:19:15.943Z,907.80
2018-01-23T12:21:45.104Z,907.37
2018-01-23T12:24:14.293Z,933.20
2018-01-23T12:26:43.478Z,908.87
2018-01-23T12:29:12.620Z,884.77
2018-01-23T12:31:42.405Z,914.07
2018-01-23T12:34:11.557Z,998.10
2018-01-23T12:36:40.743Z,1015.60
2018-01-23T12:39:09.928Z,1022.90
2018-01-23T12:41:39.118Z,1010.23
2018-01-23T12:44:08.309Z,995.30
2018-01-23T12:46:37.497Z,1004.17
2018-01-23T12:49:06.673Z,976.27
2018-01-23T12:51:35.824Z,999.37
2018-01-23T12:54:04.996Z,991.30
2018-01-23T12:56:34.140Z,1001.60
2018-01-23T12:59:03.335Z,1002.27
2018-01-23T13:01:32.533Z,1001.50
2018-01-23T13:04:01.679Z,966.90
2018-01-23T13:06:30.832Z,904.60
2018-01-23T13:08:59.982Z,899.87
2018-01-23T13:11:29.193Z,865.73
2018-01-23T13:13:58.332Z,864.73
2018-01-23T13:16:27.474Z,814.20
2018-01-23T13:18:56.654Z,760.30
2018-01-23T13:21:25.794Z,745.00
2018-01-23T13:23:55.156Z,771.97
2018-01-23T13:26:24.317Z,818.87
2018-01-23T13:28:53.494Z,759.83
2018-01-23T13:31:22.690Z,780.17
2018-01-23T13:33:51.881Z,738.23
2018-01-23T13:36:21.033Z,703.40
2018-01-23T13:38:50.182Z,730.87
2018-01-23T13:41:19.326Z,712.60
2018-01-23T13:43:48.476Z,695.00
2018-01-23T13:46:17.657Z,743.80
2018-01-23T13:48:46.839Z,675.07
2018-01-23T13:51:16.009Z,679.23
2018-01-23T13:53:45.202Z,621.03
2018-01-23T13:56:14.346Z,602.37
2018-01-23T13:58:43.497Z,632.93
2018-01-23T14:01:12.721Z,564.03
2018-01-23T14:03:42.044Z,589.60
2018-01-23T14:06:11.245Z,544.47
2018-01-23T14:08:40.408Z,612.77
2018-01-23T14:11:09.580Z,555.53
2018-01-23T14:13:38.765Z,530.40
2018-01-23T14:16:07.954Z,543.33
2018-01-23T14:18:37.137Z,525.93
2018-01-23T14:21:06.293Z,514.97
2018-01-23T14:23:35.574Z,470.30
2018-01-23T14:26:04.729Z,551.40
2018-01-23T14:28:33.878Z,501.23
2018-01-23T14:31:03.078Z,494.10
2018-01-23T14:33:32.218Z,498.27
2018-01-23T14:36:01.424Z,499.90
2018-01-23T14:38:30.577Z,985.50
2018-01-23T14:40:59.737Z,494.70
2018-01-23T14:43:28.911Z,517.60
2018-01-23T14:45:58.058Z,508.87
2018-01-23T14:48:27.240Z,544.53
2018-01-23T14:50:56.392Z,485.00
2018-01-23T14:53:26.494Z,493.83
2018-01-23T14:55:55.637Z,456.50
2018-01-23T14:58:24.810Z,500.30
2018-01-23T15:00:53.986Z,506.67
2018-01-23T15:03:23.175Z,500.77
2018-01-23T15:05:52.309Z,491.17
2018-01-23T15:08:21.494Z,459.33
2018-01-23T15:10:50.641Z,464.37
2018-01-23T15:13:19.786Z,492.33
2018-01-23T15:15:48.974Z,462.67
2018-01-23T15:18:18.118Z,436.73
2018-01-23T15:20:47.297Z,468.20
2018-01-23T15:23:16.446Z,478.67
2018-01-23T15:25:45.649Z,487.67
2018-01-23T15:28:14.853Z,426.30
2018-01-23T15:30:44.002Z,441.70
2018-01-23T15:33:13.190Z,470.10
2018-01-23T15:35:42.394Z,442.53
2018-01-23T15:38:11.550Z,470.87
2018-01-23T15:40:40.704Z,447.40
2018-01-23T15:43:09.896Z,409.13
2018-01-23T15:45:39.042Z,922.43
2018-01-23T15:48:08.210Z,439.17
2018-01-23T15:50:37.357Z,442.60
2018-01-23T15:53:06.538Z,416.80
2018-01-23T15:55:35.741Z,404.33
2018-01-23T15:58:04.914Z,438.00
2018-01-23T16:00:34.101Z,392.00
2018-01-23T16:03:03.246Z,1999.90
2018-01-23T16:05:32.390Z,1999.90
2018-01-23T16:08:01.542Z,1999.90
2018-01-23T16:10:30.740Z,1999.90
2018-01-23T16:12:59.928Z,1999.90
2018-01-23T16:15:29.109Z,1999.90
2018-01-23T16:17:58.311Z,1999.90
2018-01-23T16:20:27.586Z,1999.90
2018-01-23T16:22:56.729Z,404.83
2018-01-23T16:25:25.888Z,1999.90
2018-01-23T16:27:55.034Z,1455.77
2018-01-23T16:30:24.190Z,422.63
2018-01-23T16:32:53.385Z,1999.90
2018-01-23T16:35:22.564Z,1999.90
2018-01-23T16:37:51.733Z,1999.90
2018-01-23T16:40:20.918Z,1999.90
2018-01-23T16:42:50.074Z,1999.90
2018-01-23T16:45:19.269Z,1999.90
2018-01-23T16:47:48.448Z,1999.90
2018-01-23T16:50:17.591Z,1999.90
2018-01-23T16:52:46.789Z,1999.90
2018-01-23T16:55:15.973Z,1999.90
2018-01-23T16:57:45.124Z,1999.90
2018-01-23T17:00:14.301Z,1999.90
2018-01-23T17:02:43.453Z,1999.90
2018-01-23T17:05:12.625Z,1999.90
2018-01-23T17:07:41.768Z,1999.90
2018-01-23T17:10:10.979Z,1999.90
2018-01-23T17:12:40.202Z,1999.90
2018-01-23T17:15:09.354Z,1999.90
2018-01-23T17:17:38.592Z,1999.90
2018-01-23T17:20:07.791Z,1999.90
2018-01-23T17:22:36.981Z,1999.90
2018-01-23T17:25:06.141Z,1999.90
2018-01-23T17:27:35.324Z,1999.90
2018-01-23T17:30:04.486Z,1999.90
2018-01-23T17:32:33.679Z,1999.90
2018-01-23T17:35:02.842Z,1999.90
2018-01-23T17:37:31.997Z,1999.90
2018-01-23T17:40:01.168Z,1999.90
2018-01-23T17:42:30.373Z,1999.90
2018-01-23T17:44:59.553Z,1999.90
2018-01-23T17:47:28.693Z,1999.90
2018-01-23T17:49:57.877Z,1999.90
2018-01-23T17:52:27.064Z,1999.90
2018-01-23T17:54:56.233Z,1999.90
2018-01-23T17:57:25.488Z,1999.90
2018-01-23T17:59:54.637Z,1999.90
2018-01-23T18:02:23.835Z,1999.90
2018-01-23T18:04:53.021Z,1999.90
2018-01-23T18:07:22.217Z,1999.90
2018-01-23T18:09:51.418Z,1999.90
2018-01-23T18:12:20.613Z,1999.90
2018-01-23T18:14:49.758Z,1999.90
2018-01-23T18:17:18.918Z,1999.90
2018-01-23T18:19:48.079Z,1999.90
2018-01-23T18:22:17.269Z,1999.90
2018-01-23T18:24:46.475Z,1999.90
2018-01-23T18:27:15.678Z,1999.90
2018-01-23T18:29:44.882Z,1999.90
2018-01-23T18:32:14.038Z,1999.90
2018-01-23T18:34:43.197Z,1999.90
2018-01-23T18:37:12.423Z,1999.90
2018-01-23T18:39:41.598Z,1999.90
2018-01-23T18:42:10.766Z,1999.90
2018-01-23T18:44:39.918Z,1999.90
2018-01-23T18:47:09.074Z,1999.90
2018-01-23T18:49:38.435Z,1999.90
2018-01-23T18:52:07.641Z,1999.90
2018-01-23T18:54:36.784Z,1999.90
2018-01-23T18:57:05.962Z,1999.90
2018-01-23T18:59:35.177Z,1999.90
2018-01-23T19:02:04.461Z,1999.90
2018-01-23T19:04:33.641Z,1999.90
2018-01-23T19:07:02.834Z,1999.90
2018-01-23T19:09:32.004Z,1999.90
2018-01-23T19:12:01.160Z,1999.90
2018-01-23T19:14:30.358Z,1999.90
2018-01-23T19:16:59.509Z,1999.90
2018-01-23T19:19:28.681Z,1999.90
2018-01-23T19:21:57.847Z,1999.90
2018-01-23T19:24:27.077Z,1999.90
2018-01-23T19:26:56.229Z,1999.90
2018-01-23T19:29:25.420Z,1999.90
2018-01-23T19:31:54.676Z,1999.90
2018-01-23T19:34:23.999Z,1999.90
2018-01-23T19:36:53.446Z,1999.90
2018-01-23T19:39:22.685Z,1999.90
2018-01-23T19:41:52.076Z,1999.90
2018-01-23T19:44:21.283Z,1999.90
2018-01-23T19:46:50.434Z,1999.90
2018-01-23T19:49:19.944Z,1999.90
2018-01-23T19:51:49.152Z,1999.90
2018-01-23T19:54:18.574Z,1999.90
2018-01-23T19:56:47.789Z,1999.90
2018-01-23T19:59:16.953Z,1999.90
2018-01-23T20:01:46.167Z,1999.90
2018-01-23T20:04:15.669Z,1999.90
2018-01-23T20:06:45.168Z,1999.90
2018-01-23T20:09:14.426Z,1999.90
2018-01-23T20:11:43.587Z,1999.90
2018-01-23T20:14:12.738Z,1999.90
2018-01-23T20:16:41.901Z,1999.90
2018-01-23T20:19:11.045Z,1999.90
2018-01-23T20:21:40.501Z,1999.90
2018-01-23T20:24:09.693Z,1999.90
2018-01-23T20:26:39.086Z,1541.27
2018-01-23T20:29:08.558Z,691.73
2018-01-23T20:31:37.852Z,727.60
2018-01-23T20:34:07.037Z,761.17
2018-01-23T20:36:36.237Z,790.67
2018-01-23T20:39:05.381Z,816.03
2018-01-23T20:41:34.570Z,826.07
2018-01-23T20:44:03.754Z,869.63
2018-01-23T20:46:32.894Z,916.13
2018-01-23T20:49:02.079Z,956.07
2018-01-23T20:51:31.234Z,976.30
2018-01-23T20:54:00.435Z,1000.57
2018-01-23T20:56:29.591Z,1019.83
2018-01-23T20:58:58.814Z,1041.83
2018-01-23T21:01:27.981Z,1058.73
2018-01-23T21:03:57.170Z,1062.83
2018-01-23T21:06:26.357Z,1081.27
2018-01-23T21:08:55.546Z,1072.83
2018-01-23T21:11:24.743Z,1068.10
2018-01-23T21:13:53.910Z,1059.60
2018-01-23T21:16:23.113Z,1056.43
2018-01-23T21:18:52.296Z,1070.73
2018-01-23T21:21:21.446Z,1082.37
2018-01-23T21:23:50.632Z,1090.43
2018-01-23T21:26:19.830Z,1080.60
2018-01-23T21:28:49.166Z,1102.00
2018-01-23T21:31:18.317Z,1103.53
2018-01-23T21:33:47.485Z,1112.57
2018-01-23T21:36:16.642Z,1116.80
2018-01-23T21:38:45.825Z,1115.97
2018-01-23T21:41:14.991Z,1117.33
2018-01-23T21:43:44.181Z,1131.37
2018-01-23T21:46:13.339Z,1129.43
2018-01-23T21:48:42.525Z,1133.33
2018-01-23T21:51:11.730Z,1124.07
2018-01-23T21:53:40.881Z,1102.40
2018-01-23T21:56:10.065Z,1078.20
2018-01-23T21:58:39.294Z,1073.40
2018-01-23T22:01:08.482Z,1069.40
2018-01-23T22:03:37.632Z,1074.07
2018-01-23T22:06:06.810Z,1058.70
2018-01-23T22:08:36.012Z,1044.77
2018-01-23T22:11:05.157Z,1025.37
2018-01-23T22:13:34.306Z,1015.30
2018-01-23T22:16:03.478Z,1015.73
2018-01-23T22:18:32.624Z,1015.80
2018-01-23T22:21:01.817Z,1024.70
2018-01-23T22:23:30.966Z,1038.33
2018-01-23T22:26:00.122Z,1045.33
2018-01-23T22:28:29.309Z,1047.17
2018-01-23T22:30:58.486Z,1050.53
2018-01-23T22:33:27.625Z,1055.93
2018-01-23T22:35:56.805Z,1062.43
2018-01-23T22:38:25.995Z,1072.60
2018-01-23T22:40:55.205Z,1080.70
2018-01-23T22:43:24.375Z,1084.27
2018-01-23T22:45:53.530Z,1087.00
2018-01-23T22:48:22.730Z,1088.77
2018-01-23T22:50:51.912Z,1079.57
2018-01-23T22:53:21.058Z,1089.70
2018-01-23T22:55:50.205Z,1089.27
2018-01-23T22:58:19.362Z,1089.33
2018-01-23T23:00:48.537Z,1087.47
2018-01-23T23:03:17.709Z,1086.33
2018-01-23T23:05:46.889Z,1091.73
2018-01-23T23:08:16.078Z,1082.67
2018-01-23T23:10:45.258Z,1089.33
2018-01-23T23:13:14.422Z,1095.87
2018-01-23T23:15:43.593Z,1094.07
2018-01-23T23:18:12.738Z,1105.67
2018-01-23T23:20:41.925Z,1095.67
2018-01-23T23:23:11.059Z,1098.77
2018-01-23T23:25:40.200Z,1085.70
2018-01-23T23:28:09.451Z,1078.00
2018-01-23T23:30:38.557Z,1076.90
2018-01-23T23:33:07.750Z,1059.73
2018-01-23T23:35:36.903Z,1049.37
2018-01-23T23:38:06.074Z,1033.63
2018-01-23T23:40:35.257Z,1037.13
2018-01-23T23:43:04.399Z,1027.37
2018-01-23T23:45:33.550Z,1022.60
2018-01-23T23:48:02.729Z,1030.40
2018-01-23T23:50:31.865Z,1027.90
2018-01-23T23:53:01.054Z,1033.73
2018-01-23T23:55:30.194Z,1028.70
2018-01-23T23:57:59.385Z,1029.97
